sensor_id;sensor_type;location;lat;lon;timestamp;P1;durP1;ratioP1;P2;durP2;ratioP2
44098;SDS011;29762;50.086;14.364;2022-09-17T00:04:48;1.40;;;1.23;;
44098;SDS011;29762;50.086;14.364;2022-09-17T00:10:07;1.60;;;1.13;;
44098;SDS011;29762;50.086;14.364;2022-09-17T00:15:26;1.27;;;1.17;;
44098;SDS011;29762;50.086;14.364;2022-09-17T00:20:46;1.55;;;1.08;;
44098;SDS011;29762;50.086;14.364;2022-09-17T00:26:06;1.27;;;1.17;;
44098;SDS011;29762;50.086;14.364;2022-09-17T00:31:26;1.83;;;1.10;;
44098;SDS011;29762;50.086;14.364;2022-09-17T00:36:46;1.20;;;1.10;;
44098;SDS011;29762;50.086;14.364;2022-09-17T00:42:05;1.00;;;1.00;;
44098;SDS011;29762;50.086;14.364;2022-09-17T00:47:30;1.30;;;1.20;;
44098;SDS011;29762;50.086;14.364;2022-09-17T00:52:55;1.10;;;1.00;;
44098;SDS011;29762;50.086;14.364;2022-09-17T00:58:20;1.20;;;1.10;;
44098;SDS011;29762;50.086;14.364;2022-09-17T01:03:41;1.10;;;1.00;;
44098;SDS011;29762;50.086;14.364;2022-09-17T01:15:00;1.10;;;1.00;;
44098;SDS011;29762;50.086;14.364;2022-09-17T01:26:23;1.10;;;1.00;;
44098;SDS011;29762;50.086;14.364;2022-09-17T01:38:18;1.10;;;1.00;;
44098;SDS011;29762;50.086;14.364;2022-09-17T01:49:14;1.13;;;1.02;;
44098;SDS011;29762;50.086;14.364;2022-09-17T01:54:36;1.27;;;1.05;;
44098;SDS011;29762;50.086;14.364;2022-09-17T02:00:01;1.33;;;0.90;;
44098;SDS011;29762;50.086;14.364;2022-09-17T02:05:50;0.77;;;0.77;;
44098;SDS011;29762;50.086;14.364;2022-09-17T02:11:13;1.10;;;1.00;;
44098;SDS011;29762;50.086;14.364;2022-09-17T02:16:35;0.90;;;0.90;;
44098;SDS011;29762;50.086;14.364;2022-09-17T02:22:00;0.70;;;0.70;;
44098;SDS011;29762;50.086;14.364;2022-09-17T02:33:14;1.00;;;0.90;;
44098;SDS011;29762;50.086;14.364;2022-09-17T02:38:36;0.90;;;0.90;;
44098;SDS011;29762;50.086;14.364;2022-09-17T02:43:59;0.77;;;0.77;;
44098;SDS011;29762;50.086;14.364;2022-09-17T02:49:30;1.00;;;1.00;;
44098;SDS011;29762;50.086;14.364;2022-09-17T02:54:59;1.20;;;0.93;;
44098;SDS011;29762;50.086;14.364;2022-09-17T03:00:21;0.90;;;0.90;;
44098;SDS011;29762;50.086;14.364;2022-09-17T03:05:41;0.90;;;0.90;;
44098;SDS011;29762;50.086;14.364;2022-09-17T03:11:02;1.08;;;0.90;;
44098;SDS011;29762;50.086;14.364;2022-09-17T03:16:23;0.80;;;0.80;;
44098;SDS011;29762;50.086;14.364;2022-09-17T03:21:43;0.98;;;0.98;;
44098;SDS011;29762;50.086;14.364;2022-09-17T03:27:02;0.90;;;0.90;;
44098;SDS011;29762;50.086;14.364;2022-09-17T03:32:21;0.82;;;0.82;;
44098;SDS011;29762;50.086;14.364;2022-09-17T03:37:41;0.90;;;0.90;;
44098;SDS011;29762;50.086;14.364;2022-09-17T03:43:01;0.90;;;0.80;;
44098;SDS011;29762;50.086;14.364;2022-09-17T03:48:20;0.90;;;0.90;;
44098;SDS011;29762;50.086;14.364;2022-09-17T03:53:40;0.70;;;0.70;;
44098;SDS011;29762;50.086;14.364;2022-09-17T03:58:59;1.35;;;0.70;;
44098;SDS011;29762;50.086;14.364;2022-09-17T04:04:19;0.88;;;0.80;;
44098;SDS011;29762;50.086;14.364;2022-09-17T04:09:38;0.80;;;0.70;;
44098;SDS011;29762;50.086;14.364;2022-09-17T04:14:58;0.80;;;0.80;;
44098;SDS011;29762;50.086;14.364;2022-09-17T04:20:17;0.90;;;0.90;;
44098;SDS011;29762;50.086;14.364;2022-09-17T04:25:37;0.70;;;0.70;;
44098;SDS011;29762;50.086;14.364;2022-09-17T04:30:57;0.80;;;0.80;;
44098;SDS011;29762;50.086;14.364;2022-09-17T04:36:16;0.88;;;0.82;;
44098;SDS011;29762;50.086;14.364;2022-09-17T04:41:36;0.60;;;0.60;;
44098;SDS011;29762;50.086;14.364;2022-09-17T04:46:55;0.70;;;0.70;;
44098;SDS011;29762;50.086;14.364;2022-09-17T04:52:15;0.88;;;0.60;;
44098;SDS011;29762;50.086;14.364;2022-09-17T04:57:34;0.70;;;0.70;;
44098;SDS011;29762;50.086;14.364;2022-09-17T05:02:54;0.80;;;0.70;;
44098;SDS011;29762;50.086;14.364;2022-09-17T05:08:14;0.80;;;0.80;;
44098;SDS011;29762;50.086;14.364;2022-09-17T05:13:33;1.73;;;0.90;;
44098;SDS011;29762;50.086;14.364;2022-09-17T05:18:52;0.60;;;0.60;;
44098;SDS011;29762;50.086;14.364;2022-09-17T05:24:12;0.70;;;0.70;;
44098;SDS011;29762;50.086;14.364;2022-09-17T05:29:31;0.80;;;0.80;;
44098;SDS011;29762;50.086;14.364;2022-09-17T05:34:51;0.57;;;0.57;;
44098;SDS011;29762;50.086;14.364;2022-09-17T05:40:10;0.70;;;0.70;;
44098;SDS011;29762;50.086;14.364;2022-09-17T05:45:31;1.02;;;0.80;;
44098;SDS011;29762;50.086;14.364;2022-09-17T05:50:53;0.70;;;0.70;;
44098;SDS011;29762;50.086;14.364;2022-09-17T05:56:13;0.68;;;0.68;;
44098;SDS011;29762;50.086;14.364;2022-09-17T06:01:33;0.70;;;0.70;;
44098;SDS011;29762;50.086;14.364;2022-09-17T06:06:53;0.93;;;0.82;;
44098;SDS011;29762;50.086;14.364;2022-09-17T06:12:12;0.73;;;0.70;;
44098;SDS011;29762;50.086;14.364;2022-09-17T06:17:32;0.85;;;0.70;;
44098;SDS011;29762;50.086;14.364;2022-09-17T06:22:56;0.70;;;0.70;;
44098;SDS011;29762;50.086;14.364;2022-09-17T06:28:16;0.80;;;0.80;;
44098;SDS011;29762;50.086;14.364;2022-09-17T06:33:35;0.70;;;0.70;;
44098;SDS011;29762;50.086;14.364;2022-09-17T06:38:54;1.08;;;0.77;;
44098;SDS011;29762;50.086;14.364;2022-09-17T06:44:13;0.70;;;0.70;;
44098;SDS011;29762;50.086;14.364;2022-09-17T06:49:33;0.77;;;0.73;;
44098;SDS011;29762;50.086;14.364;2022-09-17T06:54:52;1.75;;;0.70;;
44098;SDS011;29762;50.086;14.364;2022-09-17T07:00:12;0.65;;;0.65;;
44098;SDS011;29762;50.086;14.364;2022-09-17T07:05:33;0.80;;;0.80;;
44098;SDS011;29762;50.086;14.364;2022-09-17T07:10:55;0.80;;;0.80;;
44098;SDS011;29762;50.086;14.364;2022-09-17T07:16:15;0.70;;;0.70;;
44098;SDS011;29762;50.086;14.364;2022-09-17T07:21:35;0.60;;;0.60;;
44098;SDS011;29762;50.086;14.364;2022-09-17T07:26:54;0.80;;;0.80;;
44098;SDS011;29762;50.086;14.364;2022-09-17T07:32:14;0.50;;;0.50;;
44098;SDS011;29762;50.086;14.364;2022-09-17T07:37:33;0.60;;;0.60;;
44098;SDS011;29762;50.086;14.364;2022-09-17T07:42:55;0.60;;;0.60;;
44098;SDS011;29762;50.086;14.364;2022-09-17T07:48:16;0.80;;;0.80;;
44098;SDS011;29762;50.086;14.364;2022-09-17T07:53:35;0.70;;;0.70;;
44098;SDS011;29762;50.086;14.364;2022-09-17T07:58:54;0.73;;;0.73;;
44098;SDS011;29762;50.086;14.364;2022-09-17T08:04:14;0.65;;;0.50;;
44098;SDS011;29762;50.086;14.364;2022-09-17T08:09:33;1.23;;;1.00;;
44098;SDS011;29762;50.086;14.364;2022-09-17T08:14:52;0.98;;;0.90;;
44098;SDS011;29762;50.086;14.364;2022-09-17T08:20:12;0.73;;;0.73;;
44098;SDS011;29762;50.086;14.364;2022-09-17T08:25:32;1.70;;;1.15;;
44098;SDS011;29762;50.086;14.364;2022-09-17T08:30:52;0.60;;;0.60;;
44098;SDS011;29762;50.086;14.364;2022-09-17T08:36:12;0.80;;;0.80;;
44098;SDS011;29762;50.086;14.364;2022-09-17T08:47:09;0.80;;;0.80;;
44098;SDS011;29762;50.086;14.364;2022-09-17T09:03:31;0.88;;;0.70;;
44098;SDS011;29762;50.086;14.364;2022-09-17T09:09:17;0.85;;;0.60;;
44098;SDS011;29762;50.086;14.364;2022-09-17T09:14:44;0.70;;;0.70;;
44098;SDS011;29762;50.086;14.364;2022-09-17T09:20:42;0.83;;;0.83;;
44098;SDS011;29762;50.086;14.364;2022-09-17T09:37:39;1.80;;;1.08;;
44098;SDS011;29762;50.086;14.364;2022-09-17T09:43:06;2.00;;;0.90;;
44098;SDS011;29762;50.086;14.364;2022-09-17T10:00:22;0.80;;;0.80;;
44098;SDS011;29762;50.086;14.364;2022-09-17T10:06:04;1.00;;;1.00;;
44098;SDS011;29762;50.086;14.364;2022-09-17T10:11:26;0.70;;;0.70;;
44098;SDS011;29762;50.086;14.364;2022-09-17T10:16:46;0.93;;;0.80;;
44098;SDS011;29762;50.086;14.364;2022-09-17T10:22:18;0.80;;;0.80;;
44098;SDS011;29762;50.086;14.364;2022-09-17T10:27:42;0.80;;;0.80;;
44098;SDS011;29762;50.086;14.364;2022-09-17T10:33:20;2.05;;;0.90;;
44098;SDS011;29762;50.086;14.364;2022-09-17T10:38:42;1.02;;;0.85;;
44098;SDS011;29762;50.086;14.364;2022-09-17T10:44:15;0.90;;;0.85;;
44098;SDS011;29762;50.086;14.364;2022-09-17T10:49:37;2.10;;;1.02;;
44098;SDS011;29762;50.086;14.364;2022-09-17T10:55:14;0.88;;;0.70;;
44098;SDS011;29762;50.086;14.364;2022-09-17T11:06:29;0.90;;;0.90;;
44098;SDS011;29762;50.086;14.364;2022-09-17T11:12:03;0.75;;;0.68;;
44098;SDS011;29762;50.086;14.364;2022-09-17T11:39:58;1.13;;;0.70;;
44098;SDS011;29762;50.086;14.364;2022-09-17T11:45:19;1.35;;;0.70;;
44098;SDS011;29762;50.086;14.364;2022-09-17T11:51:18;1.75;;;0.70;;
44098;SDS011;29762;50.086;14.364;2022-09-17T11:56:35;4.28;;;0.80;;
44098;SDS011;29762;50.086;14.364;2022-09-17T12:02:03;0.77;;;0.70;;
44098;SDS011;29762;50.086;14.364;2022-09-17T12:07:33;0.85;;;0.60;;
44098;SDS011;29762;50.086;14.364;2022-09-17T12:13:22;1.00;;;0.75;;
44098;SDS011;29762;50.086;14.364;2022-09-17T12:18:51;0.77;;;0.70;;
44098;SDS011;29762;50.086;14.364;2022-09-17T12:24:25;2.08;;;0.70;;
44098;SDS011;29762;50.086;14.364;2022-09-17T13:04:09;1.00;;;0.90;;
44098;SDS011;29762;50.086;14.364;2022-09-17T13:26:34;0.98;;;0.70;;
44098;SDS011;29762;50.086;14.364;2022-09-17T13:31:54;0.75;;;0.70;;
44098;SDS011;29762;50.086;14.364;2022-09-17T13:37:17;1.25;;;0.80;;
44098;SDS011;29762;50.086;14.364;2022-09-17T13:42:41;1.33;;;0.70;;
44098;SDS011;29762;50.086;14.364;2022-09-17T13:48:09;0.70;;;0.70;;
44098;SDS011;29762;50.086;14.364;2022-09-17T13:53:29;1.88;;;0.73;;
44098;SDS011;29762;50.086;14.364;2022-09-17T13:58:49;4.07;;;0.70;;
44098;SDS011;29762;50.086;14.364;2022-09-17T14:04:29;2.88;;;0.80;;
44098;SDS011;29762;50.086;14.364;2022-09-17T14:32:16;2.33;;;0.80;;
44098;SDS011;29762;50.086;14.364;2022-09-17T14:37:39;1.40;;;0.80;;
44098;SDS011;29762;50.086;14.364;2022-09-17T14:43:00;2.30;;;0.60;;
44098;SDS011;29762;50.086;14.364;2022-09-17T14:48:31;9.20;;;1.10;;
44098;SDS011;29762;50.086;14.364;2022-09-17T15:05:21;4.18;;;0.80;;
44098;SDS011;29762;50.086;14.364;2022-09-17T15:10:56;3.42;;;0.73;;
44098;SDS011;29762;50.086;14.364;2022-09-17T15:21:45;2.40;;;0.68;;
44098;SDS011;29762;50.086;14.364;2022-09-17T15:32:31;1.67;;;0.70;;
44098;SDS011;29762;50.086;14.364;2022-09-17T15:37:52;2.95;;;0.75;;
44098;SDS011;29762;50.086;14.364;2022-09-17T15:48:41;1.70;;;0.93;;
44098;SDS011;29762;50.086;14.364;2022-09-17T15:54:01;1.67;;;0.80;;
44098;SDS011;29762;50.086;14.364;2022-09-17T16:04:46;1.00;;;0.60;;
44098;SDS011;29762;50.086;14.364;2022-09-17T16:10:11;1.50;;;0.90;;
44098;SDS011;29762;50.086;14.364;2022-09-17T16:15:31;2.13;;;0.80;;
44098;SDS011;29762;50.086;14.364;2022-09-17T16:20:52;3.47;;;0.75;;
44098;SDS011;29762;50.086;14.364;2022-09-17T16:26:15;2.00;;;0.80;;
44098;SDS011;29762;50.086;14.364;2022-09-17T16:31:36;2.95;;;0.82;;
44098;SDS011;29762;50.086;14.364;2022-09-17T16:36:56;19.23;;;10.23;;
44098;SDS011;29762;50.086;14.364;2022-09-17T16:42:15;26.77;;;15.77;;
44098;SDS011;29762;50.086;14.364;2022-09-17T16:47:35;28.20;;;13.63;;
44098;SDS011;29762;50.086;14.364;2022-09-17T16:52:55;15.77;;;9.07;;
44098;SDS011;29762;50.086;14.364;2022-09-17T16:58:14;18.67;;;9.57;;
44098;SDS011;29762;50.086;14.364;2022-09-17T17:03:33;19.38;;;10.35;;
44098;SDS011;29762;50.086;14.364;2022-09-17T17:08:53;5.03;;;2.90;;
44098;SDS011;29762;50.086;14.364;2022-09-17T17:14:12;3.80;;;1.73;;
44098;SDS011;29762;50.086;14.364;2022-09-17T17:19:32;5.47;;;2.65;;
44098;SDS011;29762;50.086;14.364;2022-09-17T17:24:53;4.80;;;2.50;;
44098;SDS011;29762;50.086;14.364;2022-09-17T17:30:13;5.35;;;2.50;;
44098;SDS011;29762;50.086;14.364;2022-09-17T17:35:37;5.80;;;2.20;;
44098;SDS011;29762;50.086;14.364;2022-09-17T17:41:15;6.38;;;1.83;;
44098;SDS011;29762;50.086;14.364;2022-09-17T17:46:35;5.10;;;2.10;;
44098;SDS011;29762;50.086;14.364;2022-09-17T17:51:55;5.82;;;2.17;;
44098;SDS011;29762;50.086;14.364;2022-09-17T17:57:14;3.83;;;1.85;;
44098;SDS011;29762;50.086;14.364;2022-09-17T18:02:34;4.55;;;1.73;;
44098;SDS011;29762;50.086;14.364;2022-09-17T18:07:55;4.10;;;1.70;;
44098;SDS011;29762;50.086;14.364;2022-09-17T18:13:14;7.25;;;1.77;;
44098;SDS011;29762;50.086;14.364;2022-09-17T18:18:34;4.20;;;1.50;;
44098;SDS011;29762;50.086;14.364;2022-09-17T18:23:55;2.88;;;1.67;;
44098;SDS011;29762;50.086;14.364;2022-09-17T18:29:14;5.15;;;1.95;;
44098;SDS011;29762;50.086;14.364;2022-09-17T18:34:34;5.95;;;1.30;;
44098;SDS011;29762;50.086;14.364;2022-09-17T18:39:54;3.10;;;1.60;;
44098;SDS011;29762;50.086;14.364;2022-09-17T18:45:14;2.55;;;1.38;;
44098;SDS011;29762;50.086;14.364;2022-09-17T18:50:35;3.08;;;1.35;;
44098;SDS011;29762;50.086;14.364;2022-09-17T18:55:55;2.67;;;1.55;;
44098;SDS011;29762;50.086;14.364;2022-09-17T19:01:16;4.85;;;1.30;;
44098;SDS011;29762;50.086;14.364;2022-09-17T19:06:36;3.83;;;1.40;;
44098;SDS011;29762;50.086;14.364;2022-09-17T19:11:56;1.85;;;1.42;;
44098;SDS011;29762;50.086;14.364;2022-09-17T19:17:16;2.92;;;1.13;;
44098;SDS011;29762;50.086;14.364;2022-09-17T19:22:35;2.03;;;0.93;;
44098;SDS011;29762;50.086;14.364;2022-09-17T19:27:55;1.42;;;1.20;;
44098;SDS011;29762;50.086;14.364;2022-09-17T19:33:15;3.75;;;1.20;;
44098;SDS011;29762;50.086;14.364;2022-09-17T19:38:34;1.70;;;1.05;;
44098;SDS011;29762;50.086;14.364;2022-09-17T19:43:54;1.60;;;1.02;;
44098;SDS011;29762;50.086;14.364;2022-09-17T19:49:15;1.25;;;0.90;;
44098;SDS011;29762;50.086;14.364;2022-09-17T19:54:34;2.03;;;1.05;;
44098;SDS011;29762;50.086;14.364;2022-09-17T19:59:53;2.13;;;1.10;;
44098;SDS011;29762;50.086;14.364;2022-09-17T20:05:12;1.77;;;0.90;;
44098;SDS011;29762;50.086;14.364;2022-09-17T20:10:35;1.33;;;1.05;;
44098;SDS011;29762;50.086;14.364;2022-09-17T20:16:06;1.42;;;0.75;;
44098;SDS011;29762;50.086;14.364;2022-09-17T20:21:29;3.03;;;1.17;;
44098;SDS011;29762;50.086;14.364;2022-09-17T20:26:49;2.60;;;1.00;;
44098;SDS011;29762;50.086;14.364;2022-09-17T20:32:08;1.83;;;1.00;;
44098;SDS011;29762;50.086;14.364;2022-09-17T20:37:29;1.70;;;0.90;;
44098;SDS011;29762;50.086;14.364;2022-09-17T20:42:48;1.33;;;0.90;;
44098;SDS011;29762;50.086;14.364;2022-09-17T20:48:08;2.03;;;0.80;;
44098;SDS011;29762;50.086;14.364;2022-09-17T20:53:27;5.03;;;1.00;;
44098;SDS011;29762;50.086;14.364;2022-09-17T20:58:57;2.92;;;1.00;;
44098;SDS011;29762;50.086;14.364;2022-09-17T21:04:25;1.50;;;0.75;;
44098;SDS011;29762;50.086;14.364;2022-09-17T21:09:45;1.33;;;0.75;;
44098;SDS011;29762;50.086;14.364;2022-09-17T21:15:04;2.33;;;0.75;;
44098;SDS011;29762;50.086;14.364;2022-09-17T21:20:24;1.58;;;1.00;;
44098;SDS011;29762;50.086;14.364;2022-09-17T21:25:43;2.97;;;1.10;;
44098;SDS011;29762;50.086;14.364;2022-09-17T21:31:04;1.38;;;0.70;;
44098;SDS011;29762;50.086;14.364;2022-09-17T21:36:27;2.03;;;0.85;;
44098;SDS011;29762;50.086;14.364;2022-09-17T21:41:47;3.35;;;0.80;;
44098;SDS011;29762;50.086;14.364;2022-09-17T21:47:06;1.65;;;0.70;;
44098;SDS011;29762;50.086;14.364;2022-09-17T21:52:27;2.03;;;0.90;;
44098;SDS011;29762;50.086;14.364;2022-09-17T21:57:47;1.20;;;0.90;;
44098;SDS011;29762;50.086;14.364;2022-09-17T22:03:06;0.93;;;0.70;;
44098;SDS011;29762;50.086;14.364;2022-09-17T22:08:25;0.93;;;0.70;;
44098;SDS011;29762;50.086;14.364;2022-09-17T22:13:58;0.93;;;0.60;;
44098;SDS011;29762;50.086;14.364;2022-09-17T22:19:27;2.58;;;0.77;;
44098;SDS011;29762;50.086;14.364;2022-09-17T22:24:46;1.00;;;0.70;;
44098;SDS011;29762;50.086;14.364;2022-09-17T22:30:06;0.70;;;0.50;;
44098;SDS011;29762;50.086;14.364;2022-09-17T22:35:26;2.70;;;0.90;;
44098;SDS011;29762;50.086;14.364;2022-09-17T22:40:45;0.77;;;0.60;;
44098;SDS011;29762;50.086;14.364;2022-09-17T22:51:37;1.30;;;0.70;;
44098;SDS011;29762;50.086;14.364;2022-09-17T22:56:57;0.77;;;0.70;;
44098;SDS011;29762;50.086;14.364;2022-09-17T23:02:16;1.23;;;0.82;;
44098;SDS011;29762;50.086;14.364;2022-09-17T23:07:36;0.80;;;0.70;;
44098;SDS011;29762;50.086;14.364;2022-09-17T23:12:55;5.47;;;0.82;;
44098;SDS011;29762;50.086;14.364;2022-09-17T23:18:14;3.10;;;0.75;;
44098;SDS011;29762;50.086;14.364;2022-09-17T23:23:34;0.60;;;0.60;;
44098;SDS011;29762;50.086;14.364;2022-09-17T23:28:54;1.42;;;0.85;;
44098;SDS011;29762;50.086;14.364;2022-09-17T23:34:14;1.55;;;0.77;;
44098;SDS011;29762;50.086;14.364;2022-09-17T23:39:33;0.98;;;0.68;;
44098;SDS011;29762;50.086;14.364;2022-09-17T23:44:52;0.73;;;0.63;;
44098;SDS011;29762;50.086;14.364;2022-09-17T23:50:12;0.60;;;0.60;;
44098;SDS011;29762;50.086;14.364;2022-09-17T23:55:31;0.80;;;0.63;;
